Dernières infos :  

21/04/2017  Mise à jour des tableaux d'analyses décadaires : rubrique climatologie
10/04/2017 Second record de chaleur en 24H pour une 1ère décade d'avril : 
CLIQUEZ ICI
02/04/2017  Mise à jour des tableaux d'analyses décadaires, mensuelles et annuelles : rubrique climatologie
02/04/2017 Mise en ligne de la synthèse climatologique de Mars 2017 : 
CLIQUEZ ICI   

Si l'entête du tableau ne s'affiche pas correctement, => actualisez la page (F5 avec Internet Explorer, Chrome...).
Utilisez l'ascenseur sur la droite des lignes du tableau pour faire défiler verticalement les jours du mois.

TABLEAU DES DONNEES COMPLETES NOAA D'AVRIL 2016

DATE TEMPERATURE
sous abri
TEMPARATURE 
au sol
VENT  et  Indice de Refroidissement Eolien  PRECIPITATIONS (en mm/m2)
et Intensité
PRESSION ATMOSPHERIQUE (en hPa) HUMIDITE de l'AIR RADIATIONS SOLAIRES (en W/m2)
Mini Moy. Maxi Mini Moy. Maxi Moyen Rafale I.R.E.
Minii
Précip. jour Cumul mois Intensité Maxi Mini Moy. Maxi Mini Moy. Maxi Pic maxi du jour Total jour
01/04/2016 5.8° 7.3° 10.8° 5.6° 7.3° 11.1° 6.8km/h dir N 25.7km/h dir ONO 3.8° 6.2 6.2 6.2mm/h 1009.8 1016.1 1018.5 84% 89.6% 94% 369 13 591
02/04/2016 6.9° 9.7° 14.3° 6.7° 10.2° 17.8° 3.2km/h dir NNO 17.7km/h dir SO 5.3° 0 6.2 1011.3 1014.4 1018.3 74% 88% 93% 773 31 468
03/04/2016 10.5° 14° 17.8° 9.4° 13.6° 20° 6.3km/h dir S 29km/h dir S 10.6° 0.4 6.6 1008.5 1010.6 1012.5 68% 81.9% 93% 524 24 825
04/04/2016 11.8° 13.2° 16° 10° 12.6° 17.8° 6.6km/h dir SE 37km/h dir SSO 9.7° 0.2 6.8 1003.9 1007.1 1009.6 75% 82.8% 89% 462 15 798
05/04/2016 10.2° 11.6° 13.1° 9.4° 11.1° 13.3° 3.5km/h dir SE 22.5km/h dir NNO 10° 38.2 45 30mm/h 1003.8 1008.1 1014.9 83% 93.3% 96% 185 8 420
06/04/2016 8.2° 12.4° 17.8° 12.9° 22.8° 3.1km/h dir NNO 19.3km/h dir NNO 8.3° 0.4 45.4 1013.5 1015.2 1016.8 53% 80.5% 97% 983 66 117
07/04/2016 5.1° 9.4° 12.9° 2.2° 9.3° 21.1° 4.3km/h dir NO 37km/h dir NO 5.1° 0.8 46.2 1013.1 1014.1 1015.3 55% 77.9% 90% 1109 41 377
08/04/2016 2.9° 7.7° 12.3° 0.6° 7.7° 16.7° 8km/h dir N 32.2km/h dir NNE 1.7° 0 46.2 1009 1011.3 1013.8 47% 74.9% 92% 912 47 066
09/04/2016 5.9° 9.2° 15.2° 3.9° 9.2° 18.9° 6.3km/h dir NNO 22.5km/h dir NNO 4.1° 0 46.2 1007.2 1008.2 1009.2 50% 74.5% 87% 1085 46 974
10/04/2016 3.5° 12.3° 20.8° 2.2° 12.7° 23.9° 6.3km/h dir S 33.8km/h dir SSO 3.6° 0 46.2 1004.7 1007.5 1009.8 33% 66.5% 93% 846 74 351
11/04/2016 8.4° 13.3° 17.9° 5.6° 12.6° 21.1° 7.2km/h dir S 41.8km/h dir SO 8.1° 0.4 46.6 1006.6 1008.1 1010.7 41% 64.4% 89% 765 27 989
12/04/2016 9.8° 14.3° 21.6° 8.3° 14.5° 24.4° 10.3km/h dir SSO 45.1km/h dir SSO 9.6° 0 46.6 1006.3 1009.1 1011 43% 71.1% 91% 965 66 216
13/04/2016 9.8° 12.4° 18.7° 9.4° 12.5° 22.8° 5.3km/h dir S 48.3km/h dir ONO 8.5° 12 58.6 10.2mm/h 1006.6 1008.6 1012.4 56% 83.8% 94% 1065 41 094
14/04/2016 8.5° 13.2° 19.1° 7.8° 13.5° 22.2° 3.5km/h dir S 19.3km/h dir O 7.9° 0.2 58.8 1009.6 1012.4 1014.6 44% 75.3% 95% 1013 66 376
15/04/2016 10.5° 13.7° 17.6° 10° 13.7° 19.4° 4.8km/h dir S 49.9km/h dir SSO 10.5° 7.4 66.2 35.2mm/h 1004.8 1008.5 1010.6 58% 80.1% 94% 686 29 315
16/04/2016 11.1° 15.5° 22.2° 10° 15.4° 23.9° 11.1km/h dir SSO 41.8km/h dir S 9.3° 19.6 85.8 71.2mm/h 1001.6 1005.3 1007.2 49% 73.7% 94% 1139 56 128
17/04/2016 6.7° 10.6° 13.3° 6.1° 10.5° 16.7° 8.4km/h dir N 35.4km/h dir S 4.8° 21.4 107.2 60mm/h 1005.1 1010.2 1017.5 84% 91.6% 95% 613 17 528
18/04/2016 3.2° 11.2° 2.2° 7.3° 14.4° 4.5km/h dir NNO 30.6km/h dir NNE 2.4° 6.8 114 19.4mm/h 1017.5 1021.3 1024.8 69% 89.4% 95% 1204 35 450
19/04/2016 1.6° 9.5° 17.9° 0.6° 9.9° 21.1° 7.9km/h dir N 32.2km/h dir NNO 0.3° 0.2 114.2 1021.1 1023.6 1025.4 50% 76.6% 96% 874 79 587
20/04/2016 2.8° 12.1° 21.4° 2.2° 12.2° 25° 2.6km/h dir NE 14.5km/h dir NNE 2.8° 0 114.2 1018.7 1021.2 1022.9 49% 77.5% 95% 1060 71 423
21/04/2016 9.8° 16.3° 22.2° 8.9° 16.4° 25° 4.8km/h dir S 24.1km/h dir SO 9.8° 0 114.2 1017.1 1019.1 1020.5 47% 69.7% 95% 879 59 173
22/04/2016 11.9° 15.1° 21.1° 11.1° 16° 25.6° 4.7km/h dir S 27.4km/h dir SE 11.9° 8.4 122.6 21.8mm/h 1011.9 1016.1 1020.1 52% 78% 95% 1034 64 618
23/04/2016 7.3° 11.2° 12.8° 7.2° 11.2° 13.9° 7.4km/h dir O 33.8km/h dir NNO 4.6° 16.6 139.2 20.8mm/h 1009.2 1011 1013.8 86% 92.8% 96% 376 18 222
24/04/2016 4.4° 7.5° 11.2° 3.9° 8.4° 16.1° 10.8km/h dir N 37km/h dir NNO 2.4° 0.2 139.4 1013.8 1015.2 1016.8 46% 74.6% 93% 1114 67 943
25/04/2016 3.2° 7.4° 11.7° 2.2° 8.4° 16.1° 5km/h dir NNO 17.7km/h dir NNO 1.9° 0.2 139.6 1011.7 1016.2 1019 50% 72.2% 91% 1106 60 553
26/04/2016 4.7° 8.9° 13.3° 4.4° 9.2° 17.2° 6.8km/h dir SSO 33.8km/h dir NNO 2.7° 0.4 140 1007 1009.3 1011.8 64% 76.5% 89% 1179 32 289
27/04/2016 1.1° 6.7° 12.8° 7.2° 17.8° 3.2km/h dir ENE 17.7km/h dir NO 0.8° 0.8 140.8 1011.1 1013.5 1014.7 38% 70.9% 95% 1090 61 922
28/04/2016 2.2° 8.2° 14.3° 0.6° 8.9° 20.6° 4.5km/h dir N 25.7km/h dir N 2.1° 0 140.8 1013.5 1015.2 1017.2 41% 67.2% 91% 1187 78 307
29/04/2016 0.1° 9.1° 16.9° -0.6° 9.5° 20.6° 2.9km/h dir E 20.9km/h dir NNO 0 140.8 1015.8 1017.5 1019 40% 67.4% 95% 909 82 558
30/04/2016 3.2° 8.5° 15.1° 1.7° 8.5° 20.6° 4km/h dir SE 29km/h dir 0 2.1° 6 146.8 8.2mm/h 1014.3 1015.6 1018 56% 82.9% 93% 965 34 929

RETOUR ACCUEIL


Date de création : 01/05/2016 : 14:54
Catégorie : ARCHIVES 2002 à 2016 - ANNEES 2010 à 2019 - ANNEE 2016 - AVRIL 2016
Page lue 614 fois


Réactions à cet article

Personne n'a encore laissé de commentaire.
Soyez donc le premier !